sensor_id;sensor_type;location;lat;lon;timestamp;P1;durP1;ratioP1;P2;durP2;ratioP2
11763;SDS011;5939;56.522;14.950;2023-06-26T00:00:14;4.60;;;4.20;;
11763;SDS011;5939;56.522;14.950;2023-06-26T00:02:40;4.80;;;4.37;;
11763;SDS011;5939;56.522;14.950;2023-06-26T00:05:06;4.93;;;4.40;;
11763;SDS011;5939;56.522;14.950;2023-06-26T00:07:32;5.10;;;4.60;;
11763;SDS011;5939;56.522;14.950;2023-06-26T00:10:02;4.97;;;4.57;;
11763;SDS011;5939;56.522;14.950;2023-06-26T00:12:28;5.10;;;4.60;;
11763;SDS011;5939;56.522;14.950;2023-06-26T00:14:54;4.77;;;4.33;;
11763;SDS011;5939;56.522;14.950;2023-06-26T00:17:20;5.10;;;4.60;;
11763;SDS011;5939;56.522;14.950;2023-06-26T00:19:46;5.73;;;4.80;;
11763;SDS011;5939;56.522;14.950;2023-06-26T00:22:12;5.17;;;4.67;;
11763;SDS011;5939;56.522;14.950;2023-06-26T00:24:38;4.80;;;4.30;;
11763;SDS011;5939;56.522;14.950;2023-06-26T00:27:03;4.87;;;4.47;;
11763;SDS011;5939;56.522;14.950;2023-06-26T00:29:29;4.83;;;4.37;;
11763;SDS011;5939;56.522;14.950;2023-06-26T00:31:55;5.83;;;5.33;;
11763;SDS011;5939;56.522;14.950;2023-06-26T00:34:20;5.07;;;4.53;;
11763;SDS011;5939;56.522;14.950;2023-06-26T00:36:46;5.50;;;5.00;;
11763;SDS011;5939;56.522;14.950;2023-06-26T00:39:12;5.30;;;4.90;;
11763;SDS011;5939;56.522;14.950;2023-06-26T00:41:37;5.23;;;4.80;;
11763;SDS011;5939;56.522;14.950;2023-06-26T00:44:04;5.33;;;4.80;;
11763;SDS011;5939;56.522;14.950;2023-06-26T00:46:30;5.03;;;4.60;;
11763;SDS011;5939;56.522;14.950;2023-06-26T00:48:56;5.57;;;4.67;;
11763;SDS011;5939;56.522;14.950;2023-06-26T00:51:24;4.73;;;4.33;;
11763;SDS011;5939;56.522;14.950;2023-06-26T00:53:51;5.50;;;4.90;;
11763;SDS011;5939;56.522;14.950;2023-06-26T00:56:17;5.83;;;4.87;;
11763;SDS011;5939;56.522;14.950;2023-06-26T00:58:43;5.00;;;4.60;;
11763;SDS011;5939;56.522;14.950;2023-06-26T01:01:10;5.10;;;4.60;;
11763;SDS011;5939;56.522;14.950;2023-06-26T01:03:43;6.13;;;4.90;;
11763;SDS011;5939;56.522;14.950;2023-06-26T01:06:11;5.60;;;5.10;;
11763;SDS011;5939;56.522;14.950;2023-06-26T01:08:39;5.80;;;4.90;;
11763;SDS011;5939;56.522;14.950;2023-06-26T01:11:06;5.50;;;4.47;;
11763;SDS011;5939;56.522;14.950;2023-06-26T01:13:32;5.17;;;4.63;;
11763;SDS011;5939;56.522;14.950;2023-06-26T01:15:59;5.50;;;4.27;;
11763;SDS011;5939;56.522;14.950;2023-06-26T01:18:25;4.70;;;4.30;;
11763;SDS011;5939;56.522;14.950;2023-06-26T01:20:51;5.20;;;4.67;;
11763;SDS011;5939;56.522;14.950;2023-06-26T01:23:22;4.83;;;4.43;;
11763;SDS011;5939;56.522;14.950;2023-06-26T01:28:46;4.80;;;4.40;;
11763;SDS011;5939;56.522;14.950;2023-06-26T01:31:13;4.70;;;4.30;;
11763;SDS011;5939;56.522;14.950;2023-06-26T01:33:41;5.27;;;4.80;;
11763;SDS011;5939;56.522;14.950;2023-06-26T01:36:07;5.57;;;5.07;;
11763;SDS011;5939;56.522;14.950;2023-06-26T01:38:33;5.00;;;4.60;;
11763;SDS011;5939;56.522;14.950;2023-06-26T01:41:02;5.17;;;4.67;;
11763;SDS011;5939;56.522;14.950;2023-06-26T01:46:16;5.00;;;4.50;;
11763;SDS011;5939;56.522;14.950;2023-06-26T01:48:50;5.30;;;4.47;;
11763;SDS011;5939;56.522;14.950;2023-06-26T01:51:23;5.53;;;4.93;;
11763;SDS011;5939;56.522;14.950;2023-06-26T01:53:55;6.37;;;5.03;;
11763;SDS011;5939;56.522;14.950;2023-06-26T01:56:23;5.63;;;5.13;;
11763;SDS011;5939;56.522;14.950;2023-06-26T01:58:49;5.00;;;4.60;;
11763;SDS011;5939;56.522;14.950;2023-06-26T02:01:19;5.87;;;5.37;;
11763;SDS011;5939;56.522;14.950;2023-06-26T02:03:46;6.73;;;4.77;;
11763;SDS011;5939;56.522;14.950;2023-06-26T02:06:11;6.33;;;5.13;;
11763;SDS011;5939;56.522;14.950;2023-06-26T02:08:37;5.50;;;5.00;;
11763;SDS011;5939;56.522;14.950;2023-06-26T02:11:02;5.67;;;5.17;;
11763;SDS011;5939;56.522;14.950;2023-06-26T02:13:28;5.73;;;5.17;;
11763;SDS011;5939;56.522;14.950;2023-06-26T02:15:54;5.20;;;4.70;;
11763;SDS011;5939;56.522;14.950;2023-06-26T02:18:19;5.40;;;4.90;;
11763;SDS011;5939;56.522;14.950;2023-06-26T02:20:47;5.57;;;5.07;;
11763;SDS011;5939;56.522;14.950;2023-06-26T02:23:13;5.90;;;5.40;;
11763;SDS011;5939;56.522;14.950;2023-06-26T02:25:39;5.70;;;5.20;;
11763;SDS011;5939;56.522;14.950;2023-06-26T02:28:05;5.73;;;5.13;;
11763;SDS011;5939;56.522;14.950;2023-06-26T02:30:30;5.30;;;4.80;;
11763;SDS011;5939;56.522;14.950;2023-06-26T02:32:56;5.60;;;5.10;;
11763;SDS011;5939;56.522;14.950;2023-06-26T02:35:22;5.90;;;5.20;;
11763;SDS011;5939;56.522;14.950;2023-06-26T02:37:47;5.60;;;5.10;;
11763;SDS011;5939;56.522;14.950;2023-06-26T02:40:13;5.73;;;4.60;;
11763;SDS011;5939;56.522;14.950;2023-06-26T02:42:39;5.83;;;5.30;;
11763;SDS011;5939;56.522;14.950;2023-06-26T02:45:04;5.37;;;4.87;;
11763;SDS011;5939;56.522;14.950;2023-06-26T02:47:30;4.73;;;4.33;;
11763;SDS011;5939;56.522;14.950;2023-06-26T02:49:56;5.00;;;4.60;;
11763;SDS011;5939;56.522;14.950;2023-06-26T02:52:22;5.30;;;4.73;;
11763;SDS011;5939;56.522;14.950;2023-06-26T02:54:47;4.90;;;4.50;;
11763;SDS011;5939;56.522;14.950;2023-06-26T02:57:13;5.90;;;5.13;;
11763;SDS011;5939;56.522;14.950;2023-06-26T02:59:39;5.03;;;4.63;;
11763;SDS011;5939;56.522;14.950;2023-06-26T03:02:05;5.50;;;5.00;;
11763;SDS011;5939;56.522;14.950;2023-06-26T03:04:31;5.53;;;5.03;;
11763;SDS011;5939;56.522;14.950;2023-06-26T03:06:56;6.03;;;5.20;;
11763;SDS011;5939;56.522;14.950;2023-06-26T03:09:22;5.87;;;4.63;;
11763;SDS011;5939;56.522;14.950;2023-06-26T03:11:48;5.57;;;5.07;;
11763;SDS011;5939;56.522;14.950;2023-06-26T03:14:13;5.00;;;4.60;;
11763;SDS011;5939;56.522;14.950;2023-06-26T03:16:39;5.90;;;4.87;;
11763;SDS011;5939;56.522;14.950;2023-06-26T03:19:05;5.93;;;4.97;;
11763;SDS011;5939;56.522;14.950;2023-06-26T03:21:31;5.20;;;4.73;;
11763;SDS011;5939;56.522;14.950;2023-06-26T03:23:57;5.43;;;4.90;;
11763;SDS011;5939;56.522;14.950;2023-06-26T03:26:23;5.00;;;4.60;;
11763;SDS011;5939;56.522;14.950;2023-06-26T03:28:52;5.40;;;4.90;;
11763;SDS011;5939;56.522;14.950;2023-06-26T03:31:18;4.97;;;4.57;;
11763;SDS011;5939;56.522;14.950;2023-06-26T03:33:44;5.33;;;4.83;;
11763;SDS011;5939;56.522;14.950;2023-06-26T03:36:10;5.60;;;5.10;;
11763;SDS011;5939;56.522;14.950;2023-06-26T03:38:36;5.47;;;4.97;;
11763;SDS011;5939;56.522;14.950;2023-06-26T03:41:02;6.03;;;4.90;;
11763;SDS011;5939;56.522;14.950;2023-06-26T03:43:28;5.20;;;4.70;;
11763;SDS011;5939;56.522;14.950;2023-06-26T03:45:53;5.20;;;4.80;;
11763;SDS011;5939;56.522;14.950;2023-06-26T03:48:19;5.23;;;4.73;;
11763;SDS011;5939;56.522;14.950;2023-06-26T03:50:45;5.17;;;4.37;;
11763;SDS011;5939;56.522;14.950;2023-06-26T03:53:10;4.87;;;4.43;;
11763;SDS011;5939;56.522;14.950;2023-06-26T03:55:37;5.07;;;4.67;;
11763;SDS011;5939;56.522;14.950;2023-06-26T03:58:03;5.00;;;4.50;;
11763;SDS011;5939;56.522;14.950;2023-06-26T04:00:29;5.10;;;4.60;;
11763;SDS011;5939;56.522;14.950;2023-06-26T04:02:55;5.33;;;4.57;;
11763;SDS011;5939;56.522;14.950;2023-06-26T04:05:22;5.13;;;4.73;;
11763;SDS011;5939;56.522;14.950;2023-06-26T04:07:51;4.70;;;4.30;;
11763;SDS011;5939;56.522;14.950;2023-06-26T04:10:17;5.03;;;4.53;;
11763;SDS011;5939;56.522;14.950;2023-06-26T04:12:43;5.10;;;4.60;;
11763;SDS011;5939;56.522;14.950;2023-06-26T04:15:09;5.70;;;5.20;;
11763;SDS011;5939;56.522;14.950;2023-06-26T04:17:34;5.30;;;4.80;;
11763;SDS011;5939;56.522;14.950;2023-06-26T04:20:00;5.10;;;4.60;;
11763;SDS011;5939;56.522;14.950;2023-06-26T04:22:26;5.27;;;4.77;;
11763;SDS011;5939;56.522;14.950;2023-06-26T04:24:51;5.30;;;4.80;;
11763;SDS011;5939;56.522;14.950;2023-06-26T04:27:17;5.30;;;4.80;;
11763;SDS011;5939;56.522;14.950;2023-06-26T04:29:43;5.13;;;4.47;;
11763;SDS011;5939;56.522;14.950;2023-06-26T04:32:09;5.30;;;4.83;;
11763;SDS011;5939;56.522;14.950;2023-06-26T04:34:34;4.80;;;4.30;;
11763;SDS011;5939;56.522;14.950;2023-06-26T04:37:01;4.97;;;4.57;;
11763;SDS011;5939;56.522;14.950;2023-06-26T04:39:28;5.03;;;4.60;;
11763;SDS011;5939;56.522;14.950;2023-06-26T04:41:55;4.77;;;4.37;;
11763;SDS011;5939;56.522;14.950;2023-06-26T04:44:20;5.20;;;4.70;;
11763;SDS011;5939;56.522;14.950;2023-06-26T04:46:46;5.43;;;4.93;;
11763;SDS011;5939;56.522;14.950;2023-06-26T04:49:12;5.47;;;4.60;;
11763;SDS011;5939;56.522;14.950;2023-06-26T04:51:38;6.50;;;5.47;;
11763;SDS011;5939;56.522;14.950;2023-06-26T04:54:08;5.73;;;4.90;;
11763;SDS011;5939;56.522;14.950;2023-06-26T04:56:35;5.90;;;5.33;;
11763;SDS011;5939;56.522;14.950;2023-06-26T04:59:02;5.63;;;5.13;;
11763;SDS011;5939;56.522;14.950;2023-06-26T05:01:28;6.17;;;5.57;;
11763;SDS011;5939;56.522;14.950;2023-06-26T05:03:58;5.73;;;5.23;;
11763;SDS011;5939;56.522;14.950;2023-06-26T05:06:23;7.27;;;6.13;;
11763;SDS011;5939;56.522;14.950;2023-06-26T05:08:49;6.53;;;5.93;;
11763;SDS011;5939;56.522;14.950;2023-06-26T05:11:15;7.13;;;5.87;;
11763;SDS011;5939;56.522;14.950;2023-06-26T05:13:41;6.47;;;5.70;;
11763;SDS011;5939;56.522;14.950;2023-06-26T05:16:07;5.47;;;4.97;;
11763;SDS011;5939;56.522;14.950;2023-06-26T05:18:34;5.93;;;5.33;;
11763;SDS011;5939;56.522;14.950;2023-06-26T05:21:00;9.27;;;5.20;;
11763;SDS011;5939;56.522;14.950;2023-06-26T05:23:26;9.97;;;7.10;;
11763;SDS011;5939;56.522;14.950;2023-06-26T05:25:55;7.47;;;6.27;;
11763;SDS011;5939;56.522;14.950;2023-06-26T05:28:21;6.80;;;5.57;;
11763;SDS011;5939;56.522;14.950;2023-06-26T05:30:49;7.17;;;5.90;;
11763;SDS011;5939;56.522;14.950;2023-06-26T05:33:15;7.17;;;5.90;;
11763;SDS011;5939;56.522;14.950;2023-06-26T05:35:44;7.13;;;5.63;;
11763;SDS011;5939;56.522;14.950;2023-06-26T05:38:10;6.57;;;5.83;;
11763;SDS011;5939;56.522;14.950;2023-06-26T05:40:38;6.73;;;6.13;;
11763;SDS011;5939;56.522;14.950;2023-06-26T05:43:05;6.13;;;5.53;;
11763;SDS011;5939;56.522;14.950;2023-06-26T05:45:32;5.87;;;5.00;;
11763;SDS011;5939;56.522;14.950;2023-06-26T05:47:58;6.63;;;5.63;;
11763;SDS011;5939;56.522;14.950;2023-06-26T05:50:24;5.90;;;5.40;;
11763;SDS011;5939;56.522;14.950;2023-06-26T05:52:50;5.80;;;5.20;;
11763;SDS011;5939;56.522;14.950;2023-06-26T05:55:16;6.13;;;5.53;;
11763;SDS011;5939;56.522;14.950;2023-06-26T05:57:42;6.00;;;5.40;;
11763;SDS011;5939;56.522;14.950;2023-06-26T06:00:10;5.73;;;5.23;;
11763;SDS011;5939;56.522;14.950;2023-06-26T06:02:37;5.23;;;4.73;;
11763;SDS011;5939;56.522;14.950;2023-06-26T06:05:03;5.73;;;5.17;;
11763;SDS011;5939;56.522;14.950;2023-06-26T06:07:31;5.20;;;4.77;;
11763;SDS011;5939;56.522;14.950;2023-06-26T06:09:57;5.47;;;4.97;;
11763;SDS011;5939;56.522;14.950;2023-06-26T06:12:23;5.77;;;5.27;;
11763;SDS011;5939;56.522;14.950;2023-06-26T06:14:49;5.73;;;5.23;;
11763;SDS011;5939;56.522;14.950;2023-06-26T06:17:15;5.57;;;5.07;;
11763;SDS011;5939;56.522;14.950;2023-06-26T06:19:40;5.40;;;4.90;;
11763;SDS011;5939;56.522;14.950;2023-06-26T06:22:06;4.90;;;4.50;;
11763;SDS011;5939;56.522;14.950;2023-06-26T06:24:31;4.97;;;4.50;;
11763;SDS011;5939;56.522;14.950;2023-06-26T06:26:57;5.03;;;4.57;;
11763;SDS011;5939;56.522;14.950;2023-06-26T06:29:23;4.90;;;4.50;;
11763;SDS011;5939;56.522;14.950;2023-06-26T06:31:48;5.70;;;5.20;;
11763;SDS011;5939;56.522;14.950;2023-06-26T06:34:14;5.13;;;4.73;;
11763;SDS011;5939;56.522;14.950;2023-06-26T06:36:39;5.17;;;4.67;;
11763;SDS011;5939;56.522;14.950;2023-06-26T06:39:05;5.50;;;4.83;;
11763;SDS011;5939;56.522;14.950;2023-06-26T06:41:31;5.50;;;5.00;;
11763;SDS011;5939;56.522;14.950;2023-06-26T06:43:56;5.07;;;4.53;;
11763;SDS011;5939;56.522;14.950;2023-06-26T06:46:22;5.87;;;4.97;;
11763;SDS011;5939;56.522;14.950;2023-06-26T06:48:47;5.37;;;4.97;;
11763;SDS011;5939;56.522;14.950;2023-06-26T06:51:14;5.00;;;4.60;;
11763;SDS011;5939;56.522;14.950;2023-06-26T06:53:39;5.67;;;4.57;;
11763;SDS011;5939;56.522;14.950;2023-06-26T06:56:05;5.10;;;4.70;;
11763;SDS011;5939;56.522;14.950;2023-06-26T06:58:31;4.77;;;4.37;;
11763;SDS011;5939;56.522;14.950;2023-06-26T07:00:59;4.80;;;4.37;;
11763;SDS011;5939;56.522;14.950;2023-06-26T07:03:24;4.87;;;4.47;;
11763;SDS011;5939;56.522;14.950;2023-06-26T07:05:50;4.73;;;4.33;;
11763;SDS011;5939;56.522;14.950;2023-06-26T07:08:16;4.70;;;4.30;;
11763;SDS011;5939;56.522;14.950;2023-06-26T07:10:41;6.17;;;5.00;;
11763;SDS011;5939;56.522;14.950;2023-06-26T07:13:07;5.57;;;4.70;;
11763;SDS011;5939;56.522;14.950;2023-06-26T07:15:33;5.43;;;4.80;;
11763;SDS011;5939;56.522;14.950;2023-06-26T07:17:58;4.83;;;4.40;;
11763;SDS011;5939;56.522;14.950;2023-06-26T07:20:24;4.80;;;4.40;;
11763;SDS011;5939;56.522;14.950;2023-06-26T07:22:50;5.53;;;5.03;;
11763;SDS011;5939;56.522;14.950;2023-06-26T07:25:16;5.53;;;4.90;;
11763;SDS011;5939;56.522;14.950;2023-06-26T07:27:42;5.67;;;4.60;;
11763;SDS011;5939;56.522;14.950;2023-06-26T07:30:08;6.73;;;5.33;;
11763;SDS011;5939;56.522;14.950;2023-06-26T07:32:34;5.20;;;4.70;;
11763;SDS011;5939;56.522;14.950;2023-06-26T07:35:00;5.17;;;4.67;;
11763;SDS011;5939;56.522;14.950;2023-06-26T07:37:26;5.37;;;4.90;;
11763;SDS011;5939;56.522;14.950;2023-06-26T07:39:52;5.17;;;4.63;;
11763;SDS011;5939;56.522;14.950;2023-06-26T07:42:18;5.87;;;4.40;;
11763;SDS011;5939;56.522;14.950;2023-06-26T07:44:43;5.37;;;4.80;;
11763;SDS011;5939;56.522;14.950;2023-06-26T07:47:09;5.43;;;4.93;;
11763;SDS011;5939;56.522;14.950;2023-06-26T07:49:35;5.37;;;4.87;;
11763;SDS011;5939;56.522;14.950;2023-06-26T07:52:01;6.97;;;4.90;;
11763;SDS011;5939;56.522;14.950;2023-06-26T07:54:28;5.23;;;4.60;;
11763;SDS011;5939;56.522;14.950;2023-06-26T07:59:21;4.60;;;4.20;;
11763;SDS011;5939;56.522;14.950;2023-06-26T08:01:48;4.90;;;4.40;;
11763;SDS011;5939;56.522;14.950;2023-06-26T08:04:15;4.47;;;4.10;;
11763;SDS011;5939;56.522;14.950;2023-06-26T08:06:41;5.23;;;4.17;;
11763;SDS011;5939;56.522;14.950;2023-06-26T08:09:07;5.83;;;4.80;;
11763;SDS011;5939;56.522;14.950;2023-06-26T08:11:33;5.40;;;4.93;;
11763;SDS011;5939;56.522;14.950;2023-06-26T08:13:59;5.17;;;4.67;;
11763;SDS011;5939;56.522;14.950;2023-06-26T08:16:25;4.70;;;4.30;;
11763;SDS011;5939;56.522;14.950;2023-06-26T08:18:50;5.47;;;4.93;;
11763;SDS011;5939;56.522;14.950;2023-06-26T08:21:16;4.37;;;3.97;;
11763;SDS011;5939;56.522;14.950;2023-06-26T08:23:42;4.57;;;4.17;;
11763;SDS011;5939;56.522;14.950;2023-06-26T08:26:07;4.60;;;4.20;;
11763;SDS011;5939;56.522;14.950;2023-06-26T08:28:33;5.13;;;4.73;;
11763;SDS011;5939;56.522;14.950;2023-06-26T08:30:59;5.00;;;4.60;;
11763;SDS011;5939;56.522;14.950;2023-06-26T08:33:25;4.37;;;3.97;;
11763;SDS011;5939;56.522;14.950;2023-06-26T08:35:50;5.20;;;4.70;;
11763;SDS011;5939;56.522;14.950;2023-06-26T08:38:16;4.67;;;4.27;;
11763;SDS011;5939;56.522;14.950;2023-06-26T08:40:41;5.30;;;4.80;;
11763;SDS011;5939;56.522;14.950;2023-06-26T08:43:07;4.77;;;4.27;;
11763;SDS011;5939;56.522;14.950;2023-06-26T08:45:33;4.93;;;4.53;;
11763;SDS011;5939;56.522;14.950;2023-06-26T08:47:59;5.10;;;4.60;;
11763;SDS011;5939;56.522;14.950;2023-06-26T08:50:27;5.67;;;4.30;;
11763;SDS011;5939;56.522;14.950;2023-06-26T08:55:51;4.70;;;4.30;;
11763;SDS011;5939;56.522;14.950;2023-06-26T08:58:18;5.20;;;4.33;;
11763;SDS011;5939;56.522;14.950;2023-06-26T09:00:43;5.20;;;4.70;;
11763;SDS011;5939;56.522;14.950;2023-06-26T09:03:10;4.53;;;3.97;;
11763;SDS011;5939;56.522;14.950;2023-06-26T09:05:35;4.67;;;4.20;;
11763;SDS011;5939;56.522;14.950;2023-06-26T09:08:02;4.73;;;4.33;;
11763;SDS011;5939;56.522;14.950;2023-06-26T09:10:28;4.37;;;3.97;;
11763;SDS011;5939;56.522;14.950;2023-06-26T09:12:56;5.23;;;4.27;;
11763;SDS011;5939;56.522;14.950;2023-06-26T09:15:23;5.07;;;4.57;;
11763;SDS011;5939;56.522;14.950;2023-06-26T09:17:49;4.30;;;3.90;;
11763;SDS011;5939;56.522;14.950;2023-06-26T09:20:15;4.70;;;4.30;;
11763;SDS011;5939;56.522;14.950;2023-06-26T09:22:41;5.57;;;4.23;;
11763;SDS011;5939;56.522;14.950;2023-06-26T09:25:11;4.93;;;4.23;;
11763;SDS011;5939;56.522;14.950;2023-06-26T09:27:37;4.50;;;4.10;;
11763;SDS011;5939;56.522;14.950;2023-06-26T09:30:03;4.63;;;4.23;;
11763;SDS011;5939;56.522;14.950;2023-06-26T09:32:33;4.43;;;4.03;;
11763;SDS011;5939;56.522;14.950;2023-06-26T09:35:03;4.50;;;4.10;;
11763;SDS011;5939;56.522;14.950;2023-06-26T09:37:29;4.63;;;4.20;;
11763;SDS011;5939;56.522;14.950;2023-06-26T09:39:55;4.60;;;4.20;;
11763;SDS011;5939;56.522;14.950;2023-06-26T09:42:20;4.73;;;4.03;;
11763;SDS011;5939;56.522;14.950;2023-06-26T09:44:47;4.23;;;3.83;;
11763;SDS011;5939;56.522;14.950;2023-06-26T09:47:15;4.87;;;3.97;;
11763;SDS011;5939;56.522;14.950;2023-06-26T09:49:43;4.17;;;3.70;;
11763;SDS011;5939;56.522;14.950;2023-06-26T09:52:08;4.40;;;4.00;;
11763;SDS011;5939;56.522;14.950;2023-06-26T09:54:35;4.17;;;3.80;;
11763;SDS011;5939;56.522;14.950;2023-06-26T09:57:08;4.07;;;3.67;;
11763;SDS011;5939;56.522;14.950;2023-06-26T09:59:34;3.90;;;3.60;;
11763;SDS011;5939;56.522;14.950;2023-06-26T10:02:00;4.37;;;3.97;;
11763;SDS011;5939;56.522;14.950;2023-06-26T10:04:27;4.40;;;4.00;;
11763;SDS011;5939;56.522;14.950;2023-06-26T10:06:54;4.20;;;3.80;;
11763;SDS011;5939;56.522;14.950;2023-06-26T10:09:22;3.90;;;3.60;;
11763;SDS011;5939;56.522;14.950;2023-06-26T10:14:27;4.27;;;3.90;;
11763;SDS011;5939;56.522;14.950;2023-06-26T10:17:01;4.27;;;3.93;;
11763;SDS011;5939;56.522;14.950;2023-06-26T10:19:29;4.03;;;3.73;;
11763;SDS011;5939;56.522;14.950;2023-06-26T10:21:56;4.40;;;3.87;;
11763;SDS011;5939;56.522;14.950;2023-06-26T10:24:23;4.40;;;4.10;;
11763;SDS011;5939;56.522;14.950;2023-06-26T10:26:57;4.40;;;4.00;;
11763;SDS011;5939;56.522;14.950;2023-06-26T10:29:28;4.57;;;4.03;;
11763;SDS011;5939;56.522;14.950;2023-06-26T10:31:56;4.47;;;3.50;;
11763;SDS011;5939;56.522;14.950;2023-06-26T10:34:23;4.13;;;3.73;;
11763;SDS011;5939;56.522;14.950;2023-06-26T10:36:58;4.40;;;4.00;;
11763;SDS011;5939;56.522;14.950;2023-06-26T10:39:25;3.77;;;3.47;;
11763;SDS011;5939;56.522;14.950;2023-06-26T10:41:52;4.73;;;4.30;;
11763;SDS011;5939;56.522;14.950;2023-06-26T10:44:20;4.20;;;3.80;;
11763;SDS011;5939;56.522;14.950;2023-06-26T10:46:53;4.73;;;4.23;;
11763;SDS011;5939;56.522;14.950;2023-06-26T10:49:21;5.33;;;4.30;;
11763;SDS011;5939;56.522;14.950;2023-06-26T10:51:53;4.90;;;4.40;;
11763;SDS011;5939;56.522;14.950;2023-06-26T10:54:21;5.47;;;3.93;;
11763;SDS011;5939;56.522;14.950;2023-06-26T10:56:47;4.03;;;3.60;;
11763;SDS011;5939;56.522;14.950;2023-06-26T10:59:15;5.47;;;3.83;;
11763;SDS011;5939;56.522;14.950;2023-06-26T11:01:44;4.57;;;3.97;;
11763;SDS011;5939;56.522;14.950;2023-06-26T11:04:12;4.10;;;3.70;;
11763;SDS011;5939;56.522;14.950;2023-06-26T11:06:41;4.07;;;3.67;;
11763;SDS011;5939;56.522;14.950;2023-06-26T11:09:11;4.30;;;3.90;;
11763;SDS011;5939;56.522;14.950;2023-06-26T11:14:22;3.87;;;3.20;;
11763;SDS011;5939;56.522;14.950;2023-06-26T11:16:49;3.80;;;3.50;;
11763;SDS011;5939;56.522;14.950;2023-06-26T11:19:16;3.90;;;3.50;;
11763;SDS011;5939;56.522;14.950;2023-06-26T11:21:43;3.53;;;3.23;;
11763;SDS011;5939;56.522;14.950;2023-06-26T11:24:09;3.80;;;3.40;;
11763;SDS011;5939;56.522;14.950;2023-06-26T11:26:39;3.50;;;3.20;;
11763;SDS011;5939;56.522;14.950;2023-06-26T11:29:06;3.67;;;3.37;;
11763;SDS011;5939;56.522;14.950;2023-06-26T11:31:33;3.43;;;3.00;;
11763;SDS011;5939;56.522;14.950;2023-06-26T11:34:01;3.37;;;3.07;;
11763;SDS011;5939;56.522;14.950;2023-06-26T11:36:29;4.80;;;2.80;;
11763;SDS011;5939;56.522;14.950;2023-06-26T11:41:21;4.03;;;3.37;;
11763;SDS011;5939;56.522;14.950;2023-06-26T11:43:51;4.20;;;3.40;;
11763;SDS011;5939;56.522;14.950;2023-06-26T11:46:19;3.30;;;3.00;;
11763;SDS011;5939;56.522;14.950;2023-06-26T11:48:46;3.67;;;3.10;;
11763;SDS011;5939;56.522;14.950;2023-06-26T11:51:12;3.37;;;3.07;;
11763;SDS011;5939;56.522;14.950;2023-06-26T11:53:40;3.30;;;3.00;;
11763;SDS011;5939;56.522;14.950;2023-06-26T11:56:07;3.20;;;2.90;;
11763;SDS011;5939;56.522;14.950;2023-06-26T12:01:40;3.53;;;3.23;;
11763;SDS011;5939;56.522;14.950;2023-06-26T12:04:10;4.27;;;3.70;;
11763;SDS011;5939;56.522;14.950;2023-06-26T12:06:37;6.80;;;4.03;;
11763;SDS011;5939;56.522;14.950;2023-06-26T12:09:06;4.80;;;3.13;;
11763;SDS011;5939;56.522;14.950;2023-06-26T12:11:34;4.93;;;4.00;;
11763;SDS011;5939;56.522;14.950;2023-06-26T12:14:01;9.50;;;6.73;;
11763;SDS011;5939;56.522;14.950;2023-06-26T12:16:28;8.47;;;4.73;;
11763;SDS011;5939;56.522;14.950;2023-06-26T12:19:00;6.47;;;4.47;;
11763;SDS011;5939;56.522;14.950;2023-06-26T12:24:02;5.93;;;4.20;;
11763;SDS011;5939;56.522;14.950;2023-06-26T12:26:29;4.87;;;4.33;;
11763;SDS011;5939;56.522;14.950;2023-06-26T12:29:05;5.70;;;4.10;;
11763;SDS011;5939;56.522;14.950;2023-06-26T12:31:33;5.70;;;4.33;;
11763;SDS011;5939;56.522;14.950;2023-06-26T12:33:59;4.00;;;3.60;;
11763;SDS011;5939;56.522;14.950;2023-06-26T12:36:25;4.80;;;3.83;;
11763;SDS011;5939;56.522;14.950;2023-06-26T12:38:54;5.43;;;4.40;;
11763;SDS011;5939;56.522;14.950;2023-06-26T12:41:23;4.57;;;4.10;;
11763;SDS011;5939;56.522;14.950;2023-06-26T12:43:49;6.30;;;3.60;;
11763;SDS011;5939;56.522;14.950;2023-06-26T12:46:20;4.17;;;3.63;;
11763;SDS011;5939;56.522;14.950;2023-06-26T12:48:57;4.33;;;3.67;;
11763;SDS011;5939;56.522;14.950;2023-06-26T12:51:23;4.37;;;3.40;;
11763;SDS011;5939;56.522;14.950;2023-06-26T12:53:51;3.87;;;3.13;;
11763;SDS011;5939;56.522;14.950;2023-06-26T12:56:17;3.47;;;3.17;;
11763;SDS011;5939;56.522;14.950;2023-06-26T12:58:43;3.43;;;3.13;;
11763;SDS011;5939;56.522;14.950;2023-06-26T13:01:08;3.63;;;3.30;;
11763;SDS011;5939;56.522;14.950;2023-06-26T13:03:43;3.33;;;3.03;;
11763;SDS011;5939;56.522;14.950;2023-06-26T13:06:08;3.50;;;3.00;;
11763;SDS011;5939;56.522;14.950;2023-06-26T13:08:34;2.87;;;2.40;;
11763;SDS011;5939;56.522;14.950;2023-06-26T13:11:00;2.87;;;2.57;;
11763;SDS011;5939;56.522;14.950;2023-06-26T13:13:25;3.77;;;2.90;;
11763;SDS011;5939;56.522;14.950;2023-06-26T13:15:51;3.00;;;2.70;;
11763;SDS011;5939;56.522;14.950;2023-06-26T13:18:17;3.00;;;2.80;;
11763;SDS011;5939;56.522;14.950;2023-06-26T13:20:42;2.40;;;2.20;;
11763;SDS011;5939;56.522;14.950;2023-06-26T13:23:08;2.90;;;2.60;;
11763;SDS011;5939;56.522;14.950;2023-06-26T13:25:34;2.80;;;2.40;;
11763;SDS011;5939;56.522;14.950;2023-06-26T13:27:59;4.50;;;2.40;;
11763;SDS011;5939;56.522;14.950;2023-06-26T13:30:25;2.80;;;2.60;;
11763;SDS011;5939;56.522;14.950;2023-06-26T13:32:51;3.60;;;2.50;;
11763;SDS011;5939;56.522;14.950;2023-06-26T13:35:16;3.00;;;2.70;;
11763;SDS011;5939;56.522;14.950;2023-06-26T13:37:43;3.07;;;2.77;;
11763;SDS011;5939;56.522;14.950;2023-06-26T13:40:09;3.60;;;2.77;;
11763;SDS011;5939;56.522;14.950;2023-06-26T13:42:35;2.73;;;2.53;;
11763;SDS011;5939;56.522;14.950;2023-06-26T13:45:01;3.00;;;2.70;;
11763;SDS011;5939;56.522;14.950;2023-06-26T13:47:28;3.03;;;2.40;;
11763;SDS011;5939;56.522;14.950;2023-06-26T13:49:54;2.43;;;2.23;;
11763;SDS011;5939;56.522;14.950;2023-06-26T13:52:20;2.80;;;2.60;;
11763;SDS011;5939;56.522;14.950;2023-06-26T13:54:45;3.00;;;2.70;;
11763;SDS011;5939;56.522;14.950;2023-06-26T13:57:11;3.43;;;2.67;;
11763;SDS011;5939;56.522;14.950;2023-06-26T13:59:38;5.47;;;2.30;;
11763;SDS011;5939;56.522;14.950;2023-06-26T14:02:09;2.83;;;2.60;;
11763;SDS011;5939;56.522;14.950;2023-06-26T14:04:35;3.00;;;2.70;;
11763;SDS011;5939;56.522;14.950;2023-06-26T14:07:01;3.33;;;2.57;;
11763;SDS011;5939;56.522;14.950;2023-06-26T14:09:26;2.87;;;2.57;;
11763;SDS011;5939;56.522;14.950;2023-06-26T14:11:52;3.17;;;2.43;;
11763;SDS011;5939;56.522;14.950;2023-06-26T14:14:18;2.90;;;2.63;;
11763;SDS011;5939;56.522;14.950;2023-06-26T14:16:43;2.80;;;2.60;;
11763;SDS011;5939;56.522;14.950;2023-06-26T14:19:09;2.83;;;2.63;;
11763;SDS011;5939;56.522;14.950;2023-06-26T14:21:40;3.03;;;2.43;;
11763;SDS011;5939;56.522;14.950;2023-06-26T14:24:06;3.67;;;2.97;;
11763;SDS011;5939;56.522;14.950;2023-06-26T14:26:32;2.80;;;2.60;;
11763;SDS011;5939;56.522;14.950;2023-06-26T14:28:58;2.70;;;2.33;;
11763;SDS011;5939;56.522;14.950;2023-06-26T14:31:25;2.50;;;2.30;;
11763;SDS011;5939;56.522;14.950;2023-06-26T14:33:50;3.50;;;2.70;;
11763;SDS011;5939;56.522;14.950;2023-06-26T14:36:16;2.83;;;2.43;;
11763;SDS011;5939;56.522;14.950;2023-06-26T14:38:42;2.93;;;2.73;;
11763;SDS011;5939;56.522;14.950;2023-06-26T14:41:07;2.73;;;2.53;;
11763;SDS011;5939;56.522;14.950;2023-06-26T14:43:33;2.93;;;2.63;;
11763;SDS011;5939;56.522;14.950;2023-06-26T14:45:59;3.10;;;2.80;;
11763;SDS011;5939;56.522;14.950;2023-06-26T14:48:24;2.50;;;2.20;;
11763;SDS011;5939;56.522;14.950;2023-06-26T14:50:50;3.30;;;2.77;;
11763;SDS011;5939;56.522;14.950;2023-06-26T14:53:16;2.90;;;2.70;;
11763;SDS011;5939;56.522;14.950;2023-06-26T14:55:42;3.00;;;2.70;;
11763;SDS011;5939;56.522;14.950;2023-06-26T14:58:07;3.73;;;2.97;;
11763;SDS011;5939;56.522;14.950;2023-06-26T15:00:33;2.90;;;2.70;;
11763;SDS011;5939;56.522;14.950;2023-06-26T15:02:59;3.63;;;3.00;;
11763;SDS011;5939;56.522;14.950;2023-06-26T15:05:25;2.83;;;2.60;;
11763;SDS011;5939;56.522;14.950;2023-06-26T15:07:51;2.70;;;2.50;;